createdAt,value
2022-12-15T00:02:38.763Z,35.85
2022-12-15T00:05:25.181Z,36.47
2022-12-15T00:08:12.579Z,36.90
2022-12-15T00:10:58.551Z,39.03
2022-12-15T00:13:44.713Z,34.63
2022-12-15T00:16:30.842Z,34.30
2022-12-15T00:19:16.960Z,33.45
2022-12-15T00:22:02.546Z,31.77
2022-12-15T00:24:49.996Z,34.40
2022-12-15T00:27:35.764Z,33.58
2022-12-15T00:30:21.787Z,32.92
2022-12-15T00:33:07.530Z,33.03
2022-12-15T00:35:53.976Z,34.22
2022-12-15T00:38:39.894Z,35.30
2022-12-15T00:41:10.259Z,34.75
2022-12-15T00:43:38.897Z,34.20
2022-12-15T00:46:25.047Z,34.55
2022-12-15T00:48:53.704Z,33.22
2022-12-15T00:51:21.402Z,33.28
2022-12-15T00:54:07.308Z,34.70
2022-12-15T00:56:54.785Z,34.10
2022-12-15T00:59:40.739Z,33.20
2022-12-15T01:02:26.589Z,35.53
2022-12-15T01:05:12.766Z,32.92
2022-12-15T01:07:58.384Z,33.00
2022-12-15T01:10:44.429Z,32.33
2022-12-15T01:13:32.775Z,31.90
2022-12-15T01:16:19.159Z,31.15
2022-12-15T01:19:05.008Z,32.35
2022-12-15T01:21:33.787Z,30.35
2022-12-15T01:24:02.181Z,30.98
2022-12-15T01:26:30.934Z,29.88
2022-12-15T01:29:00.789Z,30.02
2022-12-15T01:31:29.280Z,30.05
2022-12-15T01:33:57.700Z,30.23
2022-12-15T01:36:26.116Z,29.60
2022-12-15T01:38:54.708Z,28.73
2022-12-15T01:41:22.599Z,29.63
2022-12-15T01:43:51.048Z,30.58
2022-12-15T01:46:22.613Z,31.17
2022-12-15T01:48:58.427Z,33.15
2022-12-15T01:51:31.365Z,31.10
2022-12-15T01:54:06.011Z,30.92
2022-12-15T01:56:40.162Z,32.25
2022-12-15T01:59:11.975Z,31.05
2022-12-15T02:01:42.079Z,30.70
2022-12-15T02:04:10.595Z,32.45
2022-12-15T02:06:39.295Z,34.00
2022-12-15T02:09:07.839Z,34.63
2022-12-15T02:12:08.148Z,36.17
2022-12-15T02:14:48.313Z,34.45
2022-12-15T02:17:29.396Z,34.83
2022-12-15T02:20:27.183Z,36.55
2022-12-15T02:23:36.721Z,37.45
2022-12-15T02:26:34.059Z,43.67
2022-12-15T02:29:13.168Z,41.83
2022-12-15T02:31:52.120Z,44.33
2022-12-15T02:34:27.730Z,43.50
2022-12-15T02:37:00.107Z,41.38
2022-12-15T02:39:28.617Z,40.75
2022-12-15T02:41:57.197Z,37.87
2022-12-15T02:44:29.166Z,38.97
2022-12-15T02:47:24.403Z,38.38
2022-12-15T02:50:25.046Z,36.47
2022-12-15T02:53:03.765Z,37.45
2022-12-15T02:55:40.883Z,38.53
2022-12-15T02:58:15.795Z,38.72
2022-12-15T03:00:47.992Z,40.53
2022-12-15T03:03:20.802Z,38.55
2022-12-15T03:05:53.202Z,39.60
2022-12-15T03:08:22.079Z,40.63
2022-12-15T03:10:54.002Z,41.15
2022-12-15T03:13:22.639Z,41.53
2022-12-15T03:15:52.373Z,39.27
2022-12-15T03:18:22.303Z,40.83
2022-12-15T03:20:50.707Z,41.03
2022-12-15T03:23:19.166Z,42.67
2022-12-15T03:25:49.579Z,42.40
2022-12-15T03:28:18.648Z,42.05
2022-12-15T03:30:50.310Z,44.90
2022-12-15T03:33:19.321Z,42.20
2022-12-15T03:35:49.772Z,40.78
2022-12-15T03:38:18.654Z,41.60
2022-12-15T03:40:47.063Z,42.78
2022-12-15T03:43:15.462Z,41.88
2022-12-15T03:45:43.929Z,43.20
2022-12-15T03:48:12.384Z,43.30
2022-12-15T03:50:40.809Z,41.78
2022-12-15T03:53:10.578Z,41.53
2022-12-15T03:55:39.091Z,45.00
2022-12-15T03:58:07.877Z,43.55
2022-12-15T04:00:36.598Z,43.92
2022-12-15T04:03:05.350Z,43.33
2022-12-15T04:05:35.174Z,40.90
2022-12-15T04:08:03.768Z,41.65
2022-12-15T04:10:35.453Z,41.92
2022-12-15T04:13:06.906Z,41.83
2022-12-15T04:15:35.690Z,42.70
2022-12-15T04:18:06.214Z,38.85
2022-12-15T04:20:34.090Z,41.13
2022-12-15T04:23:02.651Z,40.17
2022-12-15T04:25:48.796Z,31.67
2022-12-15T04:28:36.207Z,40.70
2022-12-15T04:31:28.392Z,40.13
2022-12-15T04:34:16.738Z,38.75
2022-12-15T04:37:04.503Z,37.13
2022-12-15T04:39:50.646Z,38.33
2022-12-15T04:42:37.848Z,38.13
2022-12-15T04:45:27.600Z,36.60
2022-12-15T04:48:13.287Z,39.63
2022-12-15T04:50:59.205Z,39.88
2022-12-15T04:53:44.925Z,36.80
2022-12-15T04:56:32.343Z,36.60
2022-12-15T04:59:18.685Z,37.10
2022-12-15T05:02:06.144Z,36.40
2022-12-15T05:04:52.328Z,37.28
2022-12-15T05:07:38.724Z,37.60
2022-12-15T05:10:25.437Z,37.10
2022-12-15T05:13:11.203Z,36.97
2022-12-15T05:15:57.328Z,35.05
2022-12-15T05:18:46.629Z,32.58
2022-12-15T05:21:32.666Z,35.15
2022-12-15T05:24:18.496Z,31.80
2022-12-15T05:27:04.201Z,33.13
2022-12-15T05:29:50.125Z,32.63
2022-12-15T05:32:18.551Z,32.45
2022-12-15T05:34:48.324Z,35.47
2022-12-15T05:37:16.751Z,35.88
2022-12-15T05:39:45.220Z,36.70
2022-12-15T05:42:13.584Z,35.55
2022-12-15T05:44:42.078Z,35.55
2022-12-15T05:47:11.612Z,40.63
2022-12-15T05:52:09.538Z,42.95
2022-12-15T05:54:37.943Z,44.13
2022-12-15T05:57:06.779Z,42.97
2022-12-15T05:59:35.176Z,42.22
2022-12-15T06:02:03.641Z,42.38
2022-12-15T06:04:32.136Z,37.17
2022-12-15T06:07:00.654Z,43.13
2022-12-15T06:09:30.456Z,41.63
2022-12-15T06:11:59.143Z,39.08
2022-12-15T06:14:27.554Z,37.13
2022-12-15T06:16:56.012Z,36.72
2022-12-15T06:19:24.642Z,39.83
2022-12-15T06:21:53.066Z,47.42
2022-12-15T06:24:21.463Z,42.95
2022-12-15T06:26:51.234Z,41.92
2022-12-15T06:29:19.862Z,39.97
2022-12-15T06:31:48.379Z,40.43
2022-12-15T06:34:17.955Z,38.67
2022-12-15T06:39:17.743Z,36.70
2022-12-15T06:41:46.590Z,36.42
2022-12-15T06:44:17.222Z,63.03
2022-12-15T06:46:46.436Z,51.80
2022-12-15T06:49:15.440Z,46.97
2022-12-15T06:51:44.870Z,41.90
2022-12-15T06:56:42.240Z,38.63
2022-12-15T06:59:13.324Z,42.67
2022-12-15T07:01:43.537Z,47.30
2022-12-15T07:04:12.419Z,41.47
2022-12-15T07:06:42.297Z,44.95
2022-12-15T07:09:16.018Z,41.58
2022-12-15T07:11:45.099Z,34.90
2022-12-15T07:14:13.819Z,33.50
2022-12-15T07:16:43.656Z,37.90
2022-12-15T07:19:13.602Z,41.25
2022-12-15T07:21:42.465Z,33.80
2022-12-15T07:24:13.075Z,36.85
2022-12-15T07:26:41.766Z,35.72
2022-12-15T07:29:11.733Z,29.42
2022-12-15T07:31:40.189Z,36.72
2022-12-15T07:34:10.096Z,36.83
2022-12-15T07:36:38.529Z,45.25
2022-12-15T07:39:06.993Z,40.47
2022-12-15T07:41:35.397Z,28.23
2022-12-15T07:44:03.808Z,37.40
2022-12-15T07:46:32.270Z,35.47
2022-12-15T07:49:01.049Z,31.80
2022-12-15T07:51:30.892Z,32.75
2022-12-15T07:53:59.658Z,36.17
2022-12-15T07:56:28.066Z,33.92
2022-12-15T07:58:56.479Z,36.47
2022-12-15T08:01:25.309Z,36.63
2022-12-15T08:03:54.086Z,41.33
2022-12-15T08:06:22.531Z,45.67
2022-12-15T08:08:52.408Z,49.33
2022-12-15T08:11:22.584Z,50.33
2022-12-15T08:14:10.613Z,54.72
2022-12-15T08:16:40.153Z,60.30
2022-12-15T08:19:12.078Z,58.40
2022-12-15T08:21:40.642Z,54.22
2022-12-15T08:24:11.219Z,51.10
2022-12-15T08:26:39.953Z,52.63
2022-12-15T08:29:48.856Z,50.80
2022-12-15T08:31:59.975Z,53.85
2022-12-15T08:34:28.604Z,61.87
2022-12-15T08:36:56.967Z,61.70
2022-12-15T08:39:27.373Z,54.03
2022-12-15T08:41:57.072Z,54.22
2022-12-15T08:44:25.481Z,55.60
2022-12-15T08:46:53.915Z,56.28
2022-12-15T08:49:22.742Z,60.42
2022-12-15T08:51:52.253Z,63.92
2022-12-15T08:54:21.884Z,60.10
2022-12-15T08:56:51.909Z,62.78
2022-12-15T08:59:20.315Z,68.13
2022-12-15T09:01:49.093Z,78.93
2022-12-15T09:04:18.126Z,80.97
2022-12-15T09:06:50.380Z,75.00
2022-12-15T09:09:19.695Z,80.95
2022-12-15T09:11:48.513Z,76.60
2022-12-15T09:14:22.734Z,74.45
2022-12-15T09:16:55.752Z,70.63
2022-12-15T09:19:25.183Z,69.17
2022-12-15T09:24:32.076Z,64.07
2022-12-15T09:27:03.860Z,60.60
2022-12-15T09:29:34.227Z,59.28
2022-12-15T09:32:05.529Z,58.55
2022-12-15T09:34:37.437Z,55.63
2022-12-15T09:37:06.140Z,51.00
2022-12-15T09:39:34.571Z,51.33
2022-12-15T09:42:03.023Z,48.85
2022-12-15T09:44:34.166Z,47.80
2022-12-15T09:47:11.958Z,47.80
2022-12-15T09:49:56.136Z,48.42
2022-12-15T09:52:27.965Z,44.15
2022-12-15T09:54:57.126Z,44.35
2022-12-15T09:57:34.465Z,40.30
2022-12-15T10:00:21.603Z,31.33
2022-12-15T10:03:18.523Z,34.17
2022-12-15T10:08:46.919Z,27.48
2022-12-15T10:11:37.091Z,26.70
2022-12-15T10:14:17.044Z,25.67
2022-12-15T10:16:56.294Z,26.60
2022-12-15T10:19:30.984Z,26.45
2022-12-15T10:21:59.620Z,26.50
2022-12-15T10:25:07.858Z,27.27
2022-12-15T10:27:36.858Z,27.35
2022-12-15T10:30:09.738Z,26.92
2022-12-15T10:32:51.383Z,27.73
2022-12-15T10:35:23.293Z,26.88
2022-12-15T10:37:52.149Z,27.15
2022-12-15T10:40:41.978Z,28.30
2022-12-15T10:43:15.697Z,25.45
2022-12-15T10:45:44.507Z,26.98
2022-12-15T10:48:21.343Z,27.63
2022-12-15T10:50:50.248Z,26.52
2022-12-15T10:53:40.201Z,27.48
2022-12-15T10:56:09.427Z,26.73
2022-12-15T11:01:36.610Z,25.50
2022-12-15T11:04:28.664Z,24.77
2022-12-15T11:06:59.591Z,24.13
2022-12-15T11:09:33.197Z,23.65
2022-12-15T11:12:19.269Z,24.05
2022-12-15T11:14:51.080Z,22.55
2022-12-15T11:17:21.491Z,23.27
2022-12-15T11:20:01.962Z,23.23
2022-12-15T11:22:41.042Z,22.92
2022-12-15T11:25:21.609Z,23.05
2022-12-15T11:27:52.862Z,23.70
2022-12-15T11:30:25.140Z,23.63
2022-12-15T11:32:56.283Z,23.75
2022-12-15T11:35:34.741Z,25.33
2022-12-15T11:38:13.022Z,24.73
2022-12-15T11:40:42.759Z,23.38
2022-12-15T11:46:00.216Z,24.25
2022-12-15T11:48:36.761Z,23.75
2022-12-15T11:51:15.978Z,24.77
2022-12-15T11:57:01.727Z,22.65
2022-12-15T11:59:44.554Z,22.67
2022-12-15T12:02:37.855Z,22.40
2022-12-15T12:05:27.841Z,22.42
2022-12-15T12:08:04.151Z,23.80
2022-12-15T12:10:40.846Z,21.65
2022-12-15T12:13:18.308Z,20.95
2022-12-15T12:15:55.678Z,22.70
2022-12-15T12:18:29.082Z,20.58
2022-12-15T12:21:03.572Z,23.10
2022-12-15T12:23:39.550Z,23.25
2022-12-15T12:26:18.033Z,22.58
2022-12-15T12:28:50.222Z,21.73
2022-12-15T12:31:28.136Z,23.40
2022-12-15T12:34:04.184Z,23.48
2022-12-15T12:36:32.615Z,22.02
2022-12-15T12:39:02.996Z,21.95
2022-12-15T12:41:39.337Z,22.80
2022-12-15T12:44:14.843Z,24.20
2022-12-15T12:46:48.802Z,22.73
2022-12-15T12:49:28.093Z,24.10
2022-12-15T12:51:58.598Z,23.95
2022-12-15T12:54:48.629Z,53.95
2022-12-15T12:57:33.103Z,84.65
2022-12-15T13:00:05.825Z,62.05
2022-12-15T13:02:57.103Z,46.17
2022-12-15T13:05:31.985Z,38.67
2022-12-15T13:08:29.423Z,38.58
2022-12-15T13:11:38.470Z,37.80
2022-12-15T13:14:21.042Z,29.13
2022-12-15T13:17:24.955Z,25.77
2022-12-15T13:20:17.057Z,26.00
2022-12-15T13:22:45.536Z,26.58
2022-12-15T13:25:48.545Z,29.63
2022-12-15T13:28:42.688Z,28.67
2022-12-15T13:31:43.094Z,32.38
2022-12-15T13:34:24.140Z,39.42
2022-12-15T13:37:02.216Z,39.60
2022-12-15T13:39:53.143Z,70.68
2022-12-15T13:42:36.011Z,48.50
2022-12-15T13:45:37.353Z,45.53
2022-12-15T13:48:39.792Z,37.53
2022-12-15T13:51:30.019Z,50.60
2022-12-15T13:54:02.939Z,43.75
2022-12-15T13:56:55.781Z,38.38
2022-12-15T13:59:31.705Z,33.00
2022-12-15T14:02:00.856Z,29.90
2022-12-15T14:04:30.754Z,30.67
2022-12-15T14:07:02.712Z,32.30
2022-12-15T14:09:35.164Z,27.45
2022-12-15T14:12:06.682Z,65.55
2022-12-15T14:14:38.096Z,59.97
2022-12-15T14:17:10.123Z,34.17
2022-12-15T14:19:42.081Z,30.05
2022-12-15T14:22:29.414Z,34.88
2022-12-15T14:25:04.186Z,41.85
2022-12-15T14:27:34.352Z,99.13
2022-12-15T14:30:22.690Z,47.03
2022-12-15T14:32:56.387Z,30.40
2022-12-15T14:35:31.808Z,24.30
2022-12-15T14:38:03.271Z,32.58
2022-12-15T14:40:32.542Z,35.05
2022-12-15T14:43:01.205Z,26.17
2022-12-15T14:45:32.397Z,26.42
2022-12-15T14:48:39.519Z,29.25
2022-12-15T14:50:52.880Z,28.73
2022-12-15T14:53:23.356Z,28.17
2022-12-15T14:55:51.933Z,28.40
2022-12-15T14:58:31.184Z,28.55
2022-12-15T15:03:04.592Z,24.90
2022-12-15T15:03:36.297Z,27.90
2022-12-15T15:06:16.877Z,27.85
2022-12-15T15:08:49.144Z,33.78
2022-12-15T15:11:29.235Z,45.85
2022-12-15T15:14:00.505Z,65.90
2022-12-15T15:16:29.253Z,61.92
2022-12-15T15:18:58.237Z,38.07
2022-12-15T15:21:30.412Z,39.97
2022-12-15T15:24:00.646Z,41.90
2022-12-15T15:26:30.834Z,35.55
2022-12-15T15:28:59.862Z,33.55
2022-12-15T15:31:40.409Z,35.38
2022-12-15T15:34:09.860Z,37.80
2022-12-15T15:36:40.492Z,38.63
2022-12-15T15:39:15.227Z,42.00
2022-12-15T15:41:43.806Z,43.90
2022-12-15T15:44:15.137Z,44.72
2022-12-15T15:46:49.323Z,38.88
2022-12-15T15:49:20.533Z,38.05
2022-12-15T15:51:50.636Z,38.03
2022-12-15T15:54:23.953Z,41.38
2022-12-15T15:56:52.421Z,30.90
2022-12-15T15:59:22.032Z,28.35
2022-12-15T16:01:54.819Z,34.85
2022-12-15T16:04:23.874Z,39.92
2022-12-15T16:06:54.466Z,57.10
2022-12-15T16:09:24.318Z,50.05
2022-12-15T16:11:52.890Z,40.58
2022-12-15T16:14:21.590Z,43.47
2022-12-15T16:16:50.166Z,45.65
2022-12-15T16:19:18.941Z,48.70
2022-12-15T16:21:51.040Z,50.35
2022-12-15T16:24:21.012Z,47.70
2022-12-15T16:26:51.541Z,48.42
2022-12-15T16:29:21.720Z,46.05
2022-12-15T16:31:50.257Z,40.35
2022-12-15T16:34:19.213Z,37.90
2022-12-15T16:36:48.369Z,40.42
2022-12-15T16:39:26.515Z,43.35
2022-12-15T16:41:56.502Z,46.00
2022-12-15T16:44:25.897Z,49.40
2022-12-15T16:49:23.011Z,37.88
2022-12-15T16:51:54.423Z,34.78
2022-12-15T16:54:26.446Z,33.70
2022-12-15T16:56:57.357Z,34.85
2022-12-15T16:59:35.883Z,32.85
2022-12-15T17:02:24.030Z,36.92
2022-12-15T17:04:55.034Z,38.17
2022-12-15T17:07:25.152Z,32.22
2022-12-15T17:09:54.941Z,34.22
2022-12-15T17:12:23.553Z,35.47
2022-12-15T17:14:52.027Z,35.13
2022-12-15T17:17:21.216Z,46.10
2022-12-15T17:20:27.926Z,49.85
2022-12-15T17:22:40.211Z,50.67
2022-12-15T17:25:17.239Z,54.90
2022-12-15T17:27:46.724Z,51.28
2022-12-15T17:30:16.588Z,49.95
2022-12-15T17:32:45.709Z,49.17
2022-12-15T17:35:14.416Z,48.03
2022-12-15T17:37:43.986Z,51.70
2022-12-15T17:40:24.569Z,49.97
2022-12-15T17:42:53.291Z,57.72
2022-12-15T17:45:24.751Z,53.25
2022-12-15T17:47:53.351Z,60.40
2022-12-15T17:50:21.824Z,67.23
2022-12-15T17:52:50.379Z,64.47
2022-12-15T17:55:23.835Z,55.00
2022-12-15T17:57:53.828Z,49.28
2022-12-15T18:00:25.664Z,47.63
2022-12-15T18:02:55.130Z,45.88
2022-12-15T18:05:25.238Z,84.93
2022-12-15T18:07:56.760Z,60.53
2022-12-15T18:10:30.815Z,79.82
2022-12-15T18:13:00.092Z,60.58
2022-12-15T18:15:31.132Z,50.40
2022-12-15T18:18:01.126Z,43.70
2022-12-15T18:20:29.772Z,46.33
2022-12-15T18:22:58.326Z,67.85
2022-12-15T18:25:30.220Z,92.15
2022-12-15T18:27:59.440Z,86.13
2022-12-15T18:30:28.806Z,63.28
2022-12-15T18:35:32.230Z,58.30
2022-12-15T18:38:00.987Z,59.85
2022-12-15T18:40:31.686Z,56.67
2022-12-15T18:43:00.253Z,50.78
2022-12-15T18:45:29.199Z,47.17
2022-12-15T18:47:57.899Z,46.47
2022-12-15T18:50:27.426Z,46.90
2022-12-15T18:53:01.075Z,55.05
2022-12-15T18:55:33.157Z,55.53
2022-12-15T18:58:01.939Z,61.20
2022-12-15T19:00:32.364Z,65.10
2022-12-15T19:03:01.537Z,71.18
2022-12-15T19:05:32.674Z,84.03
2022-12-15T19:08:05.084Z,97.57
2022-12-15T19:10:35.883Z,80.47
2022-12-15T19:13:04.999Z,66.15
2022-12-15T19:15:33.575Z,89.18
2022-12-15T19:18:19.949Z,93.72
2022-12-15T19:21:06.035Z,78.70
2022-12-15T19:23:34.953Z,73.65
2022-12-15T19:26:05.746Z,64.35
2022-12-15T19:28:34.294Z,63.67
2022-12-15T19:31:03.054Z,62.20
2022-12-15T19:33:32.103Z,53.47
2022-12-15T19:38:33.863Z,59.25
2022-12-15T19:41:02.366Z,81.07
2022-12-15T19:43:32.747Z,72.67
2022-12-15T19:46:01.801Z,65.20
2022-12-15T19:48:32.268Z,68.18
2022-12-15T19:51:00.842Z,71.05
2022-12-15T19:53:30.935Z,66.07
2022-12-15T19:56:01.934Z,69.35
2022-12-15T19:58:33.390Z,69.15
2022-12-15T20:01:05.627Z,76.82
2022-12-15T20:03:35.598Z,81.93
2022-12-15T20:06:07.869Z,80.45
2022-12-15T20:08:39.474Z,81.78
2022-12-15T20:11:15.505Z,79.25
2022-12-15T20:13:45.900Z,80.85
2022-12-15T20:16:17.502Z,82.32
2022-12-15T20:18:47.075Z,76.63
2022-12-15T20:21:22.096Z,72.70
2022-12-15T20:23:55.644Z,72.65
2022-12-15T20:26:25.578Z,67.30
2022-12-15T20:28:55.864Z,67.90
2022-12-15T20:31:26.251Z,69.22
2022-12-15T20:33:55.534Z,66.72
2022-12-15T20:36:27.253Z,69.00
2022-12-15T20:38:56.561Z,68.38
2022-12-15T20:41:28.029Z,70.70
2022-12-15T20:43:58.870Z,72.25
2022-12-15T20:46:33.516Z,72.72
2022-12-15T20:49:02.770Z,71.35
2022-12-15T20:51:33.405Z,75.15
2022-12-15T20:54:04.007Z,76.32
2022-12-15T20:56:32.769Z,77.55
2022-12-15T20:59:02.893Z,70.28
2022-12-15T21:01:35.610Z,71.47
2022-12-15T21:04:19.636Z,72.82
2022-12-15T21:06:54.272Z,70.82
2022-12-15T21:09:23.841Z,73.22
2022-12-15T21:11:54.043Z,73.07
2022-12-15T21:14:25.344Z,69.97
2022-12-15T21:16:53.934Z,69.70
2022-12-15T21:19:23.174Z,70.50
2022-12-15T21:21:55.266Z,66.03
2022-12-15T21:24:26.030Z,64.47
2022-12-15T21:26:54.810Z,64.50
2022-12-15T21:29:27.189Z,65.40
2022-12-15T21:31:55.713Z,63.75
2022-12-15T21:34:24.194Z,65.93
2022-12-15T21:36:55.043Z,64.32
2022-12-15T21:39:29.316Z,65.65
2022-12-15T21:42:00.301Z,66.57
2022-12-15T21:44:30.117Z,63.85
2022-12-15T21:46:58.894Z,63.28
2022-12-15T21:49:26.351Z,63.30
2022-12-15T21:51:58.499Z,61.78
2022-12-15T21:54:31.561Z,65.47
2022-12-15T21:57:00.783Z,62.70
2022-12-15T21:59:32.360Z,61.67
2022-12-15T22:02:01.505Z,58.47
2022-12-15T22:04:32.374Z,58.92
2022-12-15T22:07:01.190Z,63.22
2022-12-15T22:09:29.682Z,67.65
2022-12-15T22:11:58.520Z,69.38
2022-12-15T22:14:31.049Z,68.43
2022-12-15T22:17:01.161Z,66.72
2022-12-15T22:19:29.612Z,65.22
2022-12-15T22:21:58.027Z,62.40
2022-12-15T22:24:26.413Z,64.22
2022-12-15T22:26:54.915Z,67.97
2022-12-15T22:29:24.296Z,63.80
2022-12-15T22:31:55.091Z,68.85
2022-12-15T22:34:25.291Z,68.03
2022-12-15T22:36:54.996Z,68.72
2022-12-15T22:39:23.551Z,67.25
2022-12-15T22:41:53.531Z,63.70
2022-12-15T22:44:24.779Z,66.70
2022-12-15T22:46:57.306Z,59.50
2022-12-15T22:49:31.182Z,58.97
2022-12-15T22:51:59.567Z,56.00
2022-12-15T22:54:30.447Z,60.72
2022-12-15T22:57:02.722Z,61.20
2022-12-15T22:59:34.591Z,59.92
2022-12-15T23:02:05.314Z,59.50
2022-12-15T23:04:34.025Z,58.80
2022-12-15T23:07:04.481Z,59.13
2022-12-15T23:09:32.942Z,61.55
2022-12-15T23:12:00.337Z,61.58
2022-12-15T23:14:42.793Z,59.90
2022-12-15T23:17:13.511Z,56.17
2022-12-15T23:19:44.823Z,57.90
2022-12-15T23:22:13.239Z,54.92
2022-12-15T23:24:41.701Z,58.72
2022-12-15T23:27:11.372Z,60.05
2022-12-15T23:29:40.222Z,63.75
2022-12-15T23:32:09.012Z,60.25
2022-12-15T23:34:38.823Z,61.20
2022-12-15T23:37:07.257Z,59.97
2022-12-15T23:39:35.740Z,59.42
2022-12-15T23:42:05.558Z,57.13
2022-12-15T23:44:34.047Z,62.30
2022-12-15T23:47:02.797Z,61.63
2022-12-15T23:49:31.309Z,66.85
2022-12-15T23:52:01.050Z,61.72
2022-12-15T23:54:29.561Z,59.30
2022-12-15T23:56:57.949Z,56.83
2022-12-15T23:59:26.365Z,57.80
